Airfield :
LOGIN :

Register | Disclaimer

   EN    FR    IT 

 










Legend :    VFR   Marginal VFR   IFR   Intensive IFR   Very Intensive IFR
Visi :
Ceiling :
>= 8 km
>= 3000ft
5 to 8 km
1000 to 3000 ft
1500m to 5 km
500 to 1000 ft
800 to 1500m
200 to 500 ft
< 800m
< 200 ft
Symbols :   Thunderstorms  Fog  Heavy snow  Heavy precipitations  Wind > 20 kt
SIGMETs :     Misc.  Thunderstorms  Icing  Turbulence  Mountain Waves  Volcanic Ashes







- Airport Elevation : 614 ft
- IATA code : CRL


EBCI - Charleroi

CURRENT METAR :
  • 191320Z 27008KT 240V300 9999 FEW023 SCT034 07/02 Q1021 NOSIG

EXPIRED METARs :
  • 191250Z 27007KT 240V310 9999 SCT023 SCT038 07/02 Q1021 NOSIG
  • 191220Z 29008KT 260V320 9999 SCT023 SCT038 06/03 Q1021 NOSIG
  • 191150Z 27007KT 240V310 9999 FEW021 SCT038 07/03 Q1021 NOSIG
  • 191120Z 28007KT 240V310 9999 FEW021 SCT038 07/03 Q1021 NOSIG
  • 191050Z 28007KT 240V320 9999 SCT043 06/03 Q1021 NOSIG

TAF TAF EBCI
Valid from the 19 at 12:00 until the 20 at 18:00 UTC


191100Z 1912/2018 28010KT 9999 FEW025 SCT040
BECMG 1923/2001 22006KT
BECMG 2011/2013 SCT003 BKN007
TEMPO 2011/2018 2500 DZRA
BECMG 2014/2016 BKN003
No reported NOTAMs for that airfield.



MET'MAP, your aeronautical weather chart ! - Copyright ORBIFLY December 2007 - Disclaimer

ORBIFLY MET'MAP TEAM :

Programming & Development : Alexandra Zaïnal
Concept & Development : Baudouin d'Aumeries
Co-Development & Prog : Marc-Olivier Méhu
Technical & hardware support : Manuel Goepfert

Contact : metmap@orbifly.com




SOURCES & CREDITS :

   NOAA